createdAt,value
2022-09-28T00:00:28.734Z,19.12
2022-09-28T00:02:58.619Z,20.15
2022-09-28T00:05:26.918Z,20.56
2022-09-28T00:07:54.089Z,21.14
2022-09-28T00:10:22.996Z,21.32
2022-09-28T00:12:49.786Z,21.31
2022-09-28T00:15:16.521Z,21.58
2022-09-28T00:17:46.340Z,21.74
2022-09-28T00:20:13.134Z,21.78
2022-09-28T00:22:39.897Z,21.81
2022-09-28T00:25:06.647Z,21.91
2022-09-28T00:27:33.427Z,21.97
2022-09-28T00:30:00.292Z,22.19
2022-09-28T00:32:27.886Z,22.10
2022-09-28T00:34:55.002Z,21.64
2022-09-28T00:37:21.856Z,18.60
2022-09-28T00:39:48.675Z,17.31
2022-09-28T00:42:15.515Z,18.72
2022-09-28T00:44:42.397Z,19.96
2022-09-28T00:47:09.178Z,20.58
2022-09-28T00:49:36.000Z,21.25
2022-09-28T00:52:02.756Z,21.26
2022-09-28T00:54:29.496Z,21.54
2022-09-28T00:56:56.378Z,21.67
2022-09-28T00:59:24.702Z,21.68
2022-09-28T01:01:51.572Z,21.94
2022-09-28T01:04:18.382Z,21.92
2022-09-28T01:06:45.157Z,21.93
2022-09-28T01:09:11.964Z,21.87
2022-09-28T01:11:38.733Z,22.06
2022-09-28T01:14:05.470Z,22.16
2022-09-28T01:16:32.273Z,19.12
2022-09-28T01:18:59.096Z,17.93
2022-09-28T01:21:25.913Z,18.34
2022-09-28T01:23:52.669Z,19.75
2022-09-28T01:26:19.439Z,20.47
2022-09-28T01:28:46.180Z,20.87
2022-09-28T01:31:12.964Z,21.26
2022-09-28T01:33:39.765Z,21.50
2022-09-28T01:36:06.509Z,21.49
2022-09-28T01:38:33.261Z,21.76
2022-09-28T01:41:00.079Z,21.83
2022-09-28T01:43:26.906Z,21.90
2022-09-28T01:45:53.726Z,22.04
2022-09-28T01:48:20.522Z,22.14
2022-09-28T01:50:47.291Z,22.06
2022-09-28T01:53:14.045Z,22.23
2022-09-28T01:55:40.989Z,22.21
2022-09-28T01:58:07.743Z,22.27
2022-09-28T02:00:34.545Z,19.76
2022-09-28T02:03:01.360Z,18.09
2022-09-28T02:05:28.100Z,18.22
2022-09-28T02:07:54.961Z,19.72
2022-09-28T02:10:21.789Z,20.45
2022-09-28T02:12:48.550Z,20.86
2022-09-28T02:15:15.311Z,21.32
2022-09-28T02:17:42.080Z,21.46
2022-09-28T02:20:08.905Z,21.61
2022-09-28T02:22:35.679Z,21.78
2022-09-28T02:25:02.440Z,21.91
2022-09-28T02:27:29.665Z,21.92
2022-09-28T02:29:56.407Z,21.95
2022-09-28T02:32:23.163Z,21.98
2022-09-28T02:34:49.922Z,22.11
2022-09-28T02:37:16.673Z,19.39
2022-09-28T02:39:43.444Z,17.41
2022-09-28T02:42:10.208Z,17.81
2022-09-28T02:44:37.011Z,19.68
2022-09-28T02:47:03.773Z,20.29
2022-09-28T02:49:30.672Z,20.67
2022-09-28T02:51:57.571Z,21.16
2022-09-28T02:54:24.341Z,21.43
2022-09-28T02:56:51.132Z,21.46
2022-09-28T02:59:18.521Z,21.57
2022-09-28T03:01:45.344Z,21.89
2022-09-28T03:04:12.178Z,22.00
2022-09-28T03:06:39.273Z,21.78
2022-09-28T03:09:06.049Z,21.99
2022-09-28T03:11:32.897Z,22.14
2022-09-28T03:13:59.682Z,22.08
2022-09-28T03:16:27.485Z,21.68
2022-09-28T03:18:54.351Z,18.13
2022-09-28T03:21:21.112Z,17.02
2022-09-28T03:23:47.961Z,18.76
2022-09-28T03:26:14.745Z,19.98
2022-09-28T03:28:41.492Z,20.44
2022-09-28T03:31:08.293Z,21.00
2022-09-28T03:33:35.118Z,21.11
2022-09-28T03:36:01.859Z,21.42
2022-09-28T03:38:28.624Z,21.50
2022-09-28T03:40:55.509Z,21.65
2022-09-28T03:43:22.296Z,21.86
2022-09-28T03:45:49.107Z,21.81
2022-09-28T03:48:15.876Z,21.94
2022-09-28T03:50:42.613Z,21.99
2022-09-28T03:53:09.380Z,22.08
2022-09-28T03:55:36.121Z,21.75
2022-09-28T03:58:02.870Z,18.22
2022-09-28T04:00:29.872Z,16.99
2022-09-28T04:02:56.614Z,18.44
2022-09-28T04:05:23.369Z,19.95
2022-09-28T04:07:50.384Z,20.42
2022-09-28T04:10:17.216Z,20.92
2022-09-28T04:12:45.813Z,21.18
2022-09-28T04:15:12.597Z,21.37
2022-09-28T04:17:40.232Z,21.56
2022-09-28T04:20:07.346Z,21.61
2022-09-28T04:22:34.194Z,21.58
2022-09-28T04:25:00.952Z,21.81
2022-09-28T04:27:46.471Z,21.88
2022-09-28T04:30:13.232Z,22.03
2022-09-28T04:32:40.294Z,21.94
2022-09-28T04:35:07.080Z,22.17
2022-09-28T04:37:33.860Z,22.12
2022-09-28T04:40:00.614Z,21.67
2022-09-28T04:42:27.410Z,18.23
2022-09-28T04:44:54.164Z,17.06
2022-09-28T04:47:20.932Z,18.55
2022-09-28T04:49:47.705Z,20.00
2022-09-28T04:52:18.228Z,20.48
2022-09-28T04:54:45.325Z,21.01
2022-09-28T04:57:12.093Z,21.22
2022-09-28T04:59:38.938Z,21.49
2022-09-28T05:02:05.763Z,21.62
2022-09-28T05:04:32.603Z,21.80
2022-09-28T05:06:59.368Z,21.63
2022-09-28T05:09:26.128Z,21.68
2022-09-28T05:11:53.051Z,21.83
2022-09-28T05:14:21.845Z,21.85
2022-09-28T05:16:48.711Z,22.03
2022-09-28T05:19:15.645Z,22.06
2022-09-28T05:21:42.411Z,22.14
2022-09-28T05:24:09.151Z,19.07
2022-09-28T05:26:35.973Z,17.40
2022-09-28T05:29:02.758Z,17.89
2022-09-28T05:31:29.579Z,19.66
2022-09-28T05:33:56.371Z,20.35
2022-09-28T05:36:24.434Z,20.72
2022-09-28T05:38:51.215Z,21.11
2022-09-28T05:41:18.068Z,21.25
2022-09-28T05:43:45.600Z,21.51
2022-09-28T05:46:12.395Z,21.63
2022-09-28T05:48:39.475Z,21.61
2022-09-28T05:51:06.222Z,22.00
2022-09-28T05:53:32.982Z,21.77
2022-09-28T05:55:59.816Z,21.82
2022-09-28T05:58:26.644Z,22.12
2022-09-28T06:00:53.445Z,22.27
2022-09-28T06:03:20.250Z,22.10
2022-09-28T06:05:47.339Z,18.33
2022-09-28T06:08:14.078Z,17.12
2022-09-28T06:10:40.943Z,18.37
2022-09-28T06:13:07.773Z,19.80
2022-09-28T06:15:34.526Z,20.51
2022-09-28T06:18:01.283Z,20.83
2022-09-28T06:20:28.067Z,21.30
2022-09-28T06:22:54.818Z,21.46
2022-09-28T06:25:22.126Z,21.63
2022-09-28T06:27:49.800Z,21.71
2022-09-28T06:30:16.563Z,21.78
2022-09-28T06:32:43.334Z,21.74
2022-09-28T06:35:10.087Z,22.02
2022-09-28T06:37:36.842Z,21.92
2022-09-28T06:40:03.644Z,22.08
2022-09-28T06:42:30.394Z,22.20
2022-09-28T06:44:58.335Z,22.13
2022-09-28T06:47:25.129Z,22.10
2022-09-28T06:49:55.181Z,19.02
2022-09-28T06:52:21.973Z,17.48
2022-09-28T06:54:48.757Z,18.74
2022-09-28T06:57:15.615Z,20.13
2022-09-28T06:59:42.364Z,20.60
2022-09-28T07:02:09.180Z,21.10
2022-09-28T07:04:35.949Z,21.33
2022-09-28T07:07:02.702Z,21.39
2022-09-28T07:09:33.515Z,21.60
2022-09-28T07:12:01.220Z,21.68
2022-09-28T07:14:46.249Z,21.78
2022-09-28T07:17:14.879Z,22.10
2022-09-28T07:19:41.892Z,22.11
2022-09-28T07:22:08.730Z,22.17
2022-09-28T07:24:35.542Z,21.66
2022-09-28T07:27:05.488Z,17.97
2022-09-28T07:29:32.232Z,17.08
2022-09-28T07:31:59.682Z,18.77
2022-09-28T07:34:26.423Z,20.14
2022-09-28T07:36:57.349Z,20.65
2022-09-28T07:39:24.233Z,20.99
2022-09-28T07:41:50.982Z,21.18
2022-09-28T07:44:18.905Z,21.46
2022-09-28T07:46:46.511Z,21.74
2022-09-28T07:49:15.452Z,21.65
2022-09-28T07:51:44.749Z,21.89
2022-09-28T07:54:11.516Z,21.80
2022-09-28T07:56:38.267Z,21.94
2022-09-28T07:59:05.009Z,21.95
2022-09-28T08:01:31.797Z,21.96
2022-09-28T08:03:58.604Z,22.21
2022-09-28T08:06:25.410Z,22.22
2022-09-28T08:08:56.308Z,20.06
2022-09-28T08:11:23.135Z,18.10
2022-09-28T08:13:51.371Z,18.11
2022-09-28T08:16:18.908Z,19.78
2022-09-28T08:18:45.785Z,20.40
2022-09-28T08:21:31.733Z,20.91
2022-09-28T08:23:58.702Z,21.21
2022-09-28T08:26:25.445Z,21.55
2022-09-28T08:28:52.240Z,21.73
2022-09-28T08:31:19.052Z,21.71
2022-09-28T08:33:45.844Z,21.84
2022-09-28T08:36:12.606Z,21.87
2022-09-28T08:38:39.398Z,21.85
2022-09-28T08:41:06.220Z,22.03
2022-09-28T08:43:33.089Z,21.95
2022-09-28T08:45:59.884Z,22.24
2022-09-28T08:48:56.253Z,19.79
2022-09-28T08:51:28.095Z,17.33
2022-09-28T08:53:54.910Z,17.79
2022-09-28T08:56:21.712Z,19.59
2022-09-28T08:58:48.698Z,20.38
2022-09-28T09:01:16.517Z,20.87
2022-09-28T09:03:45.173Z,21.22
2022-09-28T09:06:16.381Z,21.36
2022-09-28T09:08:45.217Z,21.59
2022-09-28T09:11:12.402Z,21.52
2022-09-28T09:13:39.216Z,21.71
2022-09-28T09:16:06.045Z,21.92
2022-09-28T09:18:32.786Z,21.94
2022-09-28T09:20:59.618Z,22.03
2022-09-28T09:23:28.238Z,22.08
2022-09-28T09:25:55.023Z,22.12
2022-09-28T09:28:21.776Z,22.31
2022-09-28T09:30:48.570Z,19.56
2022-09-28T09:33:15.950Z,17.80
2022-09-28T09:35:42.748Z,18.04
2022-09-28T09:38:09.688Z,19.60
2022-09-28T09:40:36.460Z,20.45
2022-09-28T09:43:03.252Z,20.94
2022-09-28T09:45:30.015Z,21.31
2022-09-28T09:47:56.771Z,21.58
2022-09-28T09:50:29.916Z,21.60
2022-09-28T09:52:57.465Z,21.69
2022-09-28T09:55:29.645Z,21.66
2022-09-28T09:57:57.197Z,22.00
2022-09-28T10:00:24.115Z,22.13
2022-09-28T10:02:51.062Z,22.13
2022-09-28T10:05:17.956Z,22.28
2022-09-28T10:07:44.729Z,22.21
2022-09-28T10:10:11.497Z,19.28
2022-09-28T10:12:38.256Z,17.40
2022-09-28T10:15:06.512Z,17.90
2022-09-28T10:17:33.259Z,19.49
2022-09-28T10:20:00.004Z,20.35
2022-09-28T10:22:27.684Z,20.82
2022-09-28T10:24:57.477Z,21.31
2022-09-28T10:27:24.260Z,21.42
2022-09-28T10:29:51.020Z,21.46
2022-09-28T10:32:17.767Z,21.77
2022-09-28T10:34:48.729Z,21.73
2022-09-28T10:37:18.033Z,21.81
2022-09-28T10:39:44.811Z,21.93
2022-09-28T10:42:11.636Z,21.93
2022-09-28T10:44:38.726Z,22.21
2022-09-28T10:47:05.473Z,22.38
2022-09-28T10:49:32.232Z,20.51
2022-09-28T10:51:59.021Z,18.19
2022-09-28T10:54:25.843Z,17.37
2022-09-28T10:56:52.597Z,19.14
2022-09-28T10:59:19.412Z,20.28
2022-09-28T11:01:46.234Z,21.11
2022-09-28T11:04:14.560Z,21.24
2022-09-28T11:06:41.797Z,21.44
2022-09-28T11:09:08.556Z,21.60
2022-09-28T11:11:35.326Z,21.74
2022-09-28T11:14:03.353Z,21.87
2022-09-28T11:16:30.225Z,21.73
2022-09-28T11:18:57.102Z,21.88
2022-09-28T11:21:23.901Z,22.11
2022-09-28T11:23:50.662Z,22.07
2022-09-28T11:26:18.759Z,22.13
2022-09-28T11:28:45.825Z,21.86
2022-09-28T11:31:12.674Z,18.72
2022-09-28T11:33:39.538Z,17.14
2022-09-28T11:36:06.342Z,18.54
2022-09-28T11:38:36.258Z,19.84
2022-09-28T11:41:03.412Z,20.59
2022-09-28T11:43:30.255Z,21.02
2022-09-28T11:45:57.095Z,21.29
2022-09-28T11:48:23.899Z,21.53
2022-09-28T11:50:50.750Z,21.53
2022-09-28T11:53:17.768Z,21.83
2022-09-28T11:55:44.534Z,21.70
2022-09-28T11:58:11.621Z,22.03
2022-09-28T12:00:38.392Z,22.14
2022-09-28T12:03:05.289Z,22.06
2022-09-28T12:05:32.171Z,22.23
2022-09-28T12:07:58.905Z,20.75
2022-09-28T12:10:25.636Z,18.01
2022-09-28T12:12:52.423Z,17.37
2022-09-28T12:15:19.170Z,19.33
2022-09-28T12:17:46.236Z,20.24
2022-09-28T12:20:13.318Z,20.62
2022-09-28T12:22:40.081Z,20.98
2022-09-28T12:25:06.830Z,21.48
2022-09-28T12:27:33.747Z,21.53
2022-09-28T12:30:00.508Z,21.75
2022-09-28T12:32:27.244Z,21.92
2022-09-28T12:34:54.002Z,22.00
2022-09-28T12:37:20.745Z,21.91
2022-09-28T12:39:57.422Z,22.04
2022-09-28T12:42:27.560Z,22.28
2022-09-28T12:44:59.372Z,19.62
2022-09-28T12:47:26.519Z,17.36
2022-09-28T12:55:11.804Z,20.22
2022-09-28T12:57:38.574Z,20.70
2022-09-28T13:00:05.356Z,21.13
2022-09-28T13:02:32.350Z,21.24
2022-09-28T13:04:59.146Z,21.49
2022-09-28T13:07:25.897Z,21.69
2022-09-28T13:09:52.685Z,21.65
2022-09-28T13:12:19.434Z,21.79
2022-09-28T13:14:46.177Z,21.90
2022-09-28T13:17:12.937Z,21.93
2022-09-28T13:19:40.219Z,22.13
2022-09-28T13:22:07.031Z,22.22
2022-09-28T13:24:33.962Z,22.29
2022-09-28T13:27:01.081Z,19.49
2022-09-28T13:29:28.023Z,17.99
2022-09-28T13:31:54.908Z,18.27
2022-09-28T13:34:22.232Z,19.58
2022-09-28T13:36:48.974Z,20.40
2022-09-28T13:39:15.733Z,21.02
2022-09-28T13:41:42.470Z,21.25
2022-09-28T13:44:09.213Z,21.52
2022-09-28T13:46:36.040Z,21.82
2022-09-28T13:49:02.806Z,21.81
2022-09-28T13:51:29.566Z,21.85
2022-09-28T13:53:56.327Z,22.08
2022-09-28T13:56:23.217Z,22.13
2022-09-28T13:58:49.957Z,22.19
2022-09-28T14:01:17.225Z,22.18
2022-09-28T14:03:43.984Z,21.47
2022-09-28T14:06:11.449Z,18.63
2022-09-28T14:08:38.386Z,17.59
2022-09-28T14:11:05.127Z,18.88
2022-09-28T14:13:31.874Z,19.95
2022-09-28T14:15:58.685Z,20.65
2022-09-28T14:18:25.456Z,20.99
2022-09-28T14:20:52.213Z,21.44
2022-09-28T14:23:19.008Z,21.56
2022-09-28T14:25:45.825Z,21.80
2022-09-28T14:28:12.612Z,21.95
2022-09-28T14:30:39.397Z,21.89
2022-09-28T14:33:06.237Z,21.99
2022-09-28T14:35:32.990Z,22.01
2022-09-28T14:38:18.635Z,22.26
2022-09-28T14:41:04.034Z,21.73
2022-09-28T14:43:30.930Z,18.61
2022-09-28T14:45:57.745Z,17.64
2022-09-28T14:48:24.519Z,18.91
2022-09-28T14:50:51.385Z,19.98
2022-09-28T14:53:19.497Z,20.57
2022-09-28T14:55:49.760Z,21.09
2022-09-28T14:58:16.605Z,21.31
2022-09-28T15:00:43.389Z,21.48
2022-09-28T15:03:12.276Z,21.62
2022-09-28T15:05:39.291Z,21.76
2022-09-28T15:08:07.853Z,21.82
2022-09-28T15:10:34.665Z,22.03
2022-09-28T15:13:01.788Z,22.02
2022-09-28T15:15:29.190Z,21.95
2022-09-28T15:17:56.002Z,22.19
2022-09-28T15:20:24.357Z,21.16
2022-09-28T15:22:51.533Z,18.50
2022-09-28T15:25:19.834Z,17.58
2022-09-28T15:27:48.343Z,19.18
2022-09-28T15:30:15.099Z,20.15
2022-09-28T15:32:41.841Z,20.79
2022-09-28T15:35:08.601Z,21.32
2022-09-28T15:37:39.636Z,21.55
2022-09-28T15:40:07.256Z,21.63
2022-09-28T15:42:36.111Z,21.65
2022-09-28T15:45:02.882Z,21.86
2022-09-28T15:47:29.624Z,22.06
2022-09-28T15:49:59.466Z,21.91
2022-09-28T15:52:26.241Z,21.95
2022-09-28T15:54:53.916Z,22.14
2022-09-28T15:57:20.686Z,21.34
2022-09-28T15:59:47.438Z,18.57
2022-09-28T16:02:14.230Z,17.81
2022-09-28T16:04:41.072Z,18.93
2022-09-28T16:07:08.965Z,20.02
2022-09-28T16:09:40.933Z,20.61
2022-09-28T16:12:08.926Z,21.10
2022-09-28T16:14:35.684Z,21.32
2022-09-28T16:17:03.842Z,21.59
2022-09-28T16:19:30.605Z,21.63
2022-09-28T16:21:57.349Z,21.65
2022-09-28T16:24:24.160Z,22.01
2022-09-28T16:26:50.929Z,21.74
2022-09-28T16:29:20.310Z,22.03
2022-09-28T16:31:52.551Z,22.06
2022-09-28T16:34:19.885Z,22.16
2022-09-28T16:36:47.089Z,22.29
2022-09-28T16:39:14.113Z,19.34
2022-09-28T16:41:40.867Z,17.94
2022-09-28T16:44:07.720Z,18.38
2022-09-28T16:46:36.958Z,19.79
2022-09-28T16:49:05.649Z,20.43
2022-09-28T16:51:32.854Z,21.05
2022-09-28T16:54:18.440Z,21.25
2022-09-28T16:56:45.254Z,21.63
2022-09-28T16:59:15.830Z,21.58
2022-09-28T17:01:43.720Z,21.78
2022-09-28T17:04:11.984Z,21.94
2022-09-28T17:06:38.735Z,21.77
2022-09-28T17:09:07.008Z,21.98
2022-09-28T17:11:33.819Z,22.12
2022-09-28T17:14:02.830Z,22.11
2022-09-28T17:19:18.269Z,17.16
2022-09-28T17:21:45.161Z,17.90
2022-09-28T17:24:12.022Z,19.55
2022-09-28T17:26:39.509Z,20.26
2022-09-28T17:29:09.704Z,20.83
2022-09-28T17:31:36.487Z,21.11
2022-09-28T17:34:03.235Z,21.37
2022-09-28T17:36:30.376Z,21.49
2022-09-28T17:38:57.200Z,21.64
2022-09-28T17:41:23.973Z,21.70
2022-09-28T17:43:50.770Z,21.79
2022-09-28T17:46:17.613Z,21.97
2022-09-28T17:48:46.936Z,22.19
2022-09-28T17:51:13.704Z,22.18
2022-09-28T17:53:40.449Z,22.13
2022-09-28T17:56:07.192Z,22.22
2022-09-28T17:58:34.296Z,19.08
2022-09-28T18:01:01.164Z,17.39
2022-09-28T18:03:27.939Z,17.66
2022-09-28T18:05:54.729Z,19.50
2022-09-28T18:08:21.477Z,20.31
2022-09-28T18:10:48.241Z,20.76
2022-09-28T18:13:15.041Z,21.10
2022-09-28T18:15:41.836Z,21.36
2022-09-28T18:18:09.509Z,21.68
2022-09-28T18:20:36.275Z,21.78
2022-09-28T18:23:03.028Z,21.74
2022-09-28T18:25:29.945Z,21.88
2022-09-28T18:27:57.435Z,21.88
2022-09-28T18:30:24.202Z,22.00
2022-09-28T18:32:51.029Z,22.11
2022-09-28T18:35:22.616Z,22.11
2022-09-28T18:37:50.021Z,22.08
2022-09-28T18:40:16.979Z,19.00
2022-09-28T18:42:43.896Z,17.17
2022-09-28T18:45:11.174Z,17.92
2022-09-28T18:47:38.257Z,19.48
2022-09-28T18:50:05.016Z,20.34
2022-09-28T18:52:31.772Z,20.67
2022-09-28T18:54:58.541Z,21.03
2022-09-28T18:57:25.336Z,21.27
2022-09-28T18:59:52.133Z,21.47
2022-09-28T19:02:19.906Z,21.63
2022-09-28T19:04:46.766Z,21.88
2022-09-28T19:07:13.499Z,21.86
2022-09-28T19:09:43.853Z,21.98
2022-09-28T19:12:10.613Z,22.03
2022-09-28T19:14:37.357Z,22.03
2022-09-28T19:17:04.196Z,22.07
2022-09-28T19:19:31.637Z,22.08
2022-09-28T19:21:58.425Z,22.33
2022-09-28T19:24:25.226Z,19.46
2022-09-28T19:26:54.753Z,17.26
2022-09-28T19:29:21.616Z,17.48
2022-09-28T19:31:48.388Z,19.32
2022-09-28T19:34:15.486Z,20.26
2022-09-28T19:36:42.352Z,20.62
2022-09-28T19:39:09.176Z,20.97
2022-09-28T19:41:49.147Z,21.38
2022-09-28T19:44:21.013Z,21.42
2022-09-28T19:46:47.796Z,21.74
2022-09-28T19:49:14.570Z,21.66
2022-09-28T19:52:01.692Z,21.93
2022-09-28T19:54:32.079Z,21.95
2022-09-28T19:57:07.315Z,21.95
2022-09-28T19:59:34.164Z,22.13
2022-09-28T20:02:01.977Z,22.07
2022-09-28T20:04:28.825Z,22.32
2022-09-28T20:06:55.596Z,20.04
2022-09-28T20:09:22.430Z,17.57
2022-09-28T20:11:51.213Z,17.31
2022-09-28T20:14:18.592Z,19.25
2022-09-28T20:16:46.198Z,20.20
2022-09-28T20:19:12.985Z,20.72
2022-09-28T20:21:39.774Z,20.98
2022-09-28T20:24:06.543Z,21.33
2022-09-28T20:26:37.706Z,21.43
2022-09-28T20:29:04.616Z,21.60
2022-09-28T20:31:31.412Z,21.74
2022-09-28T20:33:58.241Z,21.85
2022-09-28T20:36:25.003Z,22.04
2022-09-28T20:38:52.988Z,21.95
2022-09-28T20:41:19.796Z,21.96
2022-09-28T20:43:46.677Z,22.02
2022-09-28T20:46:13.615Z,22.05
2022-09-28T20:48:40.561Z,18.96
2022-09-28T20:51:10.120Z,17.80
2022-09-28T20:53:36.867Z,18.58
2022-09-28T20:56:03.651Z,19.78
2022-09-28T20:58:30.946Z,20.77
2022-09-28T21:00:57.696Z,20.90
2022-09-28T21:03:24.888Z,21.33
2022-09-28T21:05:51.701Z,21.44
2022-09-28T21:08:18.618Z,21.61
2022-09-28T21:10:45.478Z,21.73
2022-09-28T21:13:12.298Z,21.57
2022-09-28T21:15:39.115Z,21.84
2022-09-28T21:18:05.914Z,21.95
2022-09-28T21:20:32.694Z,21.95
2022-09-28T21:22:59.452Z,21.98
2022-09-28T21:25:26.205Z,22.14
2022-09-28T21:27:53.081Z,19.88
2022-09-28T21:30:20.068Z,17.53
2022-09-28T21:32:46.872Z,17.30
2022-09-28T21:35:13.646Z,19.16
2022-09-28T21:37:40.469Z,20.03
2022-09-28T21:40:09.649Z,20.50
2022-09-28T21:42:36.407Z,20.93
2022-09-28T21:45:03.191Z,21.33
2022-09-28T21:47:29.941Z,21.39
2022-09-28T21:49:56.709Z,21.65
2022-09-28T21:52:23.531Z,21.77
2022-09-28T21:54:50.283Z,21.79
2022-09-28T21:57:18.931Z,21.79
2022-09-28T21:59:46.986Z,21.81
2022-09-28T22:02:13.885Z,22.01
2022-09-28T22:04:40.909Z,22.16
2022-09-28T22:07:07.698Z,22.03
2022-09-28T22:09:34.456Z,19.59
2022-09-28T22:12:01.223Z,17.52
2022-09-28T22:14:27.969Z,17.59
2022-09-28T22:16:54.720Z,19.49
2022-09-28T22:19:21.504Z,20.22
2022-09-28T22:21:48.280Z,20.88
2022-09-28T22:24:15.073Z,21.05
2022-09-28T22:26:42.201Z,21.20
2022-09-28T22:29:09.119Z,21.55
2022-09-28T22:31:36.010Z,21.62
2022-09-28T22:34:02.824Z,21.65
2022-09-28T22:36:29.561Z,21.74
2022-09-28T22:38:56.301Z,21.95
2022-09-28T22:41:23.309Z,21.83
2022-09-28T22:43:50.128Z,21.90
2022-09-28T22:46:16.930Z,22.08
2022-09-28T22:48:43.754Z,22.22
2022-09-28T22:51:10.530Z,22.18
2022-09-28T22:53:37.741Z,20.38
2022-09-28T22:56:05.504Z,17.83
2022-09-28T22:58:32.509Z,17.13
2022-09-28T23:00:59.369Z,19.26
2022-09-28T23:03:26.144Z,20.15
2022-09-28T23:05:53.865Z,20.68
2022-09-28T23:08:20.669Z,21.03
2022-09-28T23:10:47.438Z,21.34
2022-09-28T23:13:14.211Z,21.43
2022-09-28T23:15:41.061Z,21.46
2022-09-28T23:18:08.493Z,21.65
2022-09-28T23:20:36.000Z,21.80
2022-09-28T23:23:02.741Z,21.88
2022-09-28T23:25:29.501Z,21.76
2022-09-28T23:27:56.244Z,21.97
2022-09-28T23:30:23.093Z,22.09
2022-09-28T23:32:50.011Z,22.01
2022-09-28T23:35:16.753Z,22.08
2022-09-28T23:37:43.493Z,18.62
2022-09-28T23:40:10.260Z,17.22
2022-09-28T23:42:37.163Z,18.34
2022-09-28T23:45:03.914Z,19.88
2022-09-28T23:47:30.742Z,20.55
2022-09-28T23:49:57.501Z,20.93
2022-09-28T23:52:24.240Z,21.26
2022-09-28T23:54:51.008Z,21.52
2022-09-28T23:57:17.750Z,21.38
2022-09-28T23:59:44.492Z,21.64
